Time;durP1;ratioP1;P1;durP2;ratioP2;P2;SDS_P1;SDS_P2;PMS_P1;PMS_P2;Temp;Humidity;BMP_temperature;BMP_pressure;BME280_temperature;BME280_humidity;BME280_pressure;Samples;Min_cycle;Max_cycle;Signal;HPM_P1;HPM_P2
2023/06/15 00:01:15;;;;;;;12.50;11.90;;;;;;;;;;4985524;28;20026;-68
2023/06/15 00:03:43;;;;;;;11.98;11.38;;;;;;;;;;4988536;28;20029;-68
2023/06/15 00:06:09;;;;;;;12.82;12.20;;;;;;;;;;4987333;28;20464;-68
2023/06/15 00:08:34;;;;;;;12.65;11.98;;;;;;;;;;4989189;28;20059;-68
2023/06/15 00:11:00;;;;;;;12.07;11.48;;;;;;;;;;4984444;28;20496;-69
2023/06/15 00:13:25;;;;;;;12.20;11.60;;;;;;;;;;4988869;28;20359;-68
2023/06/15 00:15:50;;;;;;;12.20;11.60;;;;;;;;;;4988539;28;20050;-69
2023/06/15 00:18:17;;;;;;;11.82;11.27;;;;;;;;;;4983138;28;20054;-69
2023/06/15 00:20:44;;;;;;;11.93;11.38;;;;;;;;;;4989537;28;20041;-68
2023/06/15 00:23:09;;;;;;;12.55;11.95;;;;;;;;;;4988582;28;20505;-67
2023/06/15 00:25:35;;;;;;;12.20;11.60;;;;;;;;;;4986123;28;20030;-68
2023/06/15 00:28:01;;;;;;;11.82;11.23;;;;;;;;;;4983858;28;20446;-67
2023/06/15 00:30:26;;;;;;;11.68;11.18;;;;;;;;;;4989636;28;20508;-67
2023/06/15 00:32:52;;;;;;;11.65;11.15;;;;;;;;;;4983811;28;20050;-67
2023/06/15 00:35:17;;;;;;;12.10;11.50;;;;;;;;;;4989323;28;20061;-68
2023/06/15 00:37:42;;;;;;;12.40;11.80;;;;;;;;;;4986084;28;20018;-67
2023/06/15 00:40:09;;;;;;;12.63;11.98;;;;;;;;;;4985217;28;20080;-69
2023/06/15 00:42:35;;;;;;;11.70;11.20;;;;;;;;;;4988958;28;20053;-67
2023/06/15 00:45:01;;;;;;;11.40;10.90;;;;;;;;;;4985652;28;20040;-67
2023/06/15 00:47:26;;;;;;;12.30;11.70;;;;;;;;;;4993202;28;20104;-67
2023/06/15 00:49:51;;;;;;;11.82;11.27;;;;;;;;;;4986328;28;20530;-68
2023/06/15 00:52:17;;;;;;;12.30;11.70;;;;;;;;;;4987877;28;20481;-68
2023/06/15 00:54:43;;;;;;;11.77;11.25;;;;;;;;;;4985169;28;20022;-67
2023/06/15 00:57:10;;;;;;;12.68;12.05;;;;;;;;;;4985587;28;20030;-67
2023/06/15 00:59:36;;;;;;;11.98;11.38;;;;;;;;;;4990455;28;20029;-68
2023/06/15 01:02:03;;;;;;;11.80;11.30;;;;;;;;;;4986176;28;20030;-68
2023/06/15 01:04:29;;;;;;;12.90;12.25;;;;;;;;;;4988030;28;20032;-68
2023/06/15 01:06:56;;;;;;;11.90;11.35;;;;;;;;;;4986421;28;20022;-68
2023/06/15 01:09:22;;;;;;;12.40;11.80;;;;;;;;;;4982918;28;20034;-67
2023/06/15 01:11:52;;;;;;;12.32;11.73;;;;;;;;;;4987337;28;20033;-68
2023/06/15 01:14:19;;;;;;;11.63;11.13;;;;;;;;;;4988833;28;20109;-68
2023/06/15 01:16:52;;;;;;;12.18;11.57;;;;;;;;;;4985631;28;20101;-68
2023/06/15 01:19:29;;;;;;;11.73;11.23;;;;;;;;;;4986999;28;20177;-68
2023/06/15 01:21:58;;;;;;;11.90;11.32;;;;;;;;;;4988041;28;20047;-68
2023/06/15 01:24:32;;;;;;;12.50;11.90;;;;;;;;;;4985066;28;20057;-69
2023/06/15 01:26:59;;;;;;;12.07;11.48;;;;;;;;;;4989089;28;20066;-69
2023/06/15 01:29:26;;;;;;;11.85;11.27;;;;;;;;;;4983260;28;20037;-69
2023/06/15 01:31:52;;;;;;;12.25;11.65;;;;;;;;;;4989164;28;20513;-69
2023/06/15 01:34:17;;;;;;;12.65;12.05;;;;;;;;;;4985421;28;20035;-68
2023/06/15 01:36:43;;;;;;;12.48;11.88;;;;;;;;;;4989249;28;20017;-68
2023/06/15 01:39:08;;;;;;;12.30;11.70;;;;;;;;;;4986259;28;20022;-68
2023/06/15 01:41:34;;;;;;;12.85;12.20;;;;;;;;;;4988487;28;20022;-68
2023/06/15 01:44:01;;;;;;;12.20;11.60;;;;;;;;;;4988783;28;20069;-68
2023/06/15 01:46:28;;;;;;;12.23;11.63;;;;;;;;;;4987674;28;20022;-69
2023/06/15 01:48:54;;;;;;;13.07;12.38;;;;;;;;;;4988434;28;20036;-68
2023/06/15 01:51:22;;;;;;;11.93;11.35;;;;;;;;;;4994363;28;20018;-68
2023/06/15 01:53:47;;;;;;;13.00;12.30;;;;;;;;;;4984577;28;20045;-68
2023/06/15 01:56:13;;;;;;;11.70;11.20;;;;;;;;;;4983961;28;20106;-67
2023/06/15 01:58:39;;;;;;;11.90;11.30;;;;;;;;;;4985784;28;20019;-68
2023/06/15 02:01:04;;;;;;;12.63;12.02;;;;;;;;;;4990666;28;20447;-68
2023/06/15 02:03:31;;;;;;;12.70;12.07;;;;;;;;;;4989537;28;20028;-69
2023/06/15 02:05:56;;;;;;;12.57;11.98;;;;;;;;;;4989758;28;20117;-68
2023/06/15 02:08:21;;;;;;;11.98;11.38;;;;;;;;;;4989270;28;20105;-68
2023/06/15 02:10:47;;;;;;;12.73;12.13;;;;;;;;;;4991450;28;20448;-68
2023/06/15 02:13:12;;;;;;;11.80;11.30;;;;;;;;;;4992254;28;20026;-68
2023/06/15 02:15:38;;;;;;;12.57;11.98;;;;;;;;;;4988975;28;20041;-68
2023/06/15 02:18:11;;;;;;;13.05;12.35;;;;;;;;;;4985095;28;20019;-69
2023/06/15 02:20:38;;;;;;;12.32;11.73;;;;;;;;;;4990390;28;20029;-68
2023/06/15 02:23:04;;;;;;;13.18;12.48;;;;;;;;;;4991116;28;20122;-68
2023/06/15 02:25:30;;;;;;;12.93;12.27;;;;;;;;;;4990005;28;20081;-68
2023/06/15 02:27:56;;;;;;;12.60;12.00;;;;;;;;;;4986245;28;20109;-68
2023/06/15 02:30:25;;;;;;;12.00;11.40;;;;;;;;;;4992991;28;20500;-68
2023/06/15 02:32:52;;;;;;;12.55;11.93;;;;;;;;;;4983426;28;20141;-69
2023/06/15 02:35:18;;;;;;;12.10;11.50;;;;;;;;;;4993062;28;20069;-68
2023/06/15 02:37:43;;;;;;;12.55;11.95;;;;;;;;;;4988011;28;20030;-68
2023/06/15 02:40:09;;;;;;;12.30;11.70;;;;;;;;;;4991980;28;20014;-68
2023/06/15 02:42:35;;;;;;;13.38;12.68;;;;;;;;;;4986546;28;20113;-69
2023/06/15 02:45:02;;;;;;;11.98;11.40;;;;;;;;;;4984291;28;20030;-67
2023/06/15 02:47:28;;;;;;;12.98;12.27;;;;;;;;;;4982005;28;20027;-68
2023/06/15 02:49:53;;;;;;;12.75;12.13;;;;;;;;;;4987869;28;20033;-68
2023/06/15 02:52:18;;;;;;;11.60;11.10;;;;;;;;;;4988861;28;20022;-68
2023/06/15 02:54:43;;;;;;;12.13;11.52;;;;;;;;;;4988841;28;20050;-68
2023/06/15 02:57:09;;;;;;;11.50;11.00;;;;;;;;;;4983043;28;20129;-68
2023/06/15 02:59:34;;;;;;;12.10;11.50;;;;;;;;;;4981121;28;20085;-68
2023/06/15 03:02:00;;;;;;;12.45;11.85;;;;;;;;;;4988948;28;20026;-68
2023/06/15 03:04:27;;;;;;;11.95;11.35;;;;;;;;;;4988568;28;20031;-67
2023/06/15 03:06:53;;;;;;;12.02;11.43;;;;;;;;;;4982521;28;20038;-66
2023/06/15 03:09:20;;;;;;;11.75;11.25;;;;;;;;;;4988999;28;20030;-68
2023/06/15 03:11:45;;;;;;;12.18;11.57;;;;;;;;;;4988010;28;20022;-67
2023/06/15 03:14:10;;;;;;;12.10;11.52;;;;;;;;;;4987707;28;20101;-67
2023/06/15 03:16:39;;;;;;;12.77;12.18;;;;;;;;;;4988587;28;20022;-67
2023/06/15 03:19:05;;;;;;;12.30;11.70;;;;;;;;;;4984550;28;20018;-68
2023/06/15 03:21:30;;;;;;;12.20;11.60;;;;;;;;;;4991164;28;20034;-67
2023/06/15 03:23:56;;;;;;;12.05;11.52;;;;;;;;;;4990678;28;20033;-68
2023/06/15 03:26:23;;;;;;;11.75;11.25;;;;;;;;;;4989896;28;20441;-68
2023/06/15 03:28:49;;;;;;;12.00;11.48;;;;;;;;;;4990614;28;20037;-68
2023/06/15 03:31:18;;;;;;;12.57;11.98;;;;;;;;;;4989617;28;20038;-68
2023/06/15 03:33:45;;;;;;;12.52;11.93;;;;;;;;;;4989848;28;20042;-68
2023/06/15 03:36:13;;;;;;;12.10;11.60;;;;;;;;;;4982857;28;20030;-68
2023/06/15 03:38:38;;;;;;;12.40;11.80;;;;;;;;;;4990128;28;20030;-68
2023/06/15 03:41:04;;;;;;;11.77;11.27;;;;;;;;;;4987351;28;20014;-68
2023/06/15 03:43:29;;;;;;;12.23;11.63;;;;;;;;;;4989651;28;20061;-69
2023/06/15 03:45:54;;;;;;;12.40;11.80;;;;;;;;;;4986874;28;20046;-68
2023/06/15 03:48:20;;;;;;;11.98;11.48;;;;;;;;;;4983194;28;20035;-69
2023/06/15 03:50:45;;;;;;;12.98;12.38;;;;;;;;;;4987231;28;20359;-67
2023/06/15 03:53:11;;;;;;;12.40;11.82;;;;;;;;;;4984461;28;20574;-69
2023/06/15 03:55:37;;;;;;;11.98;11.48;;;;;;;;;;5002697;28;20026;-66
2023/06/15 03:58:03;;;;;;;12.50;11.90;;;;;;;;;;4981804;28;20081;-66
2023/06/15 04:00:28;;;;;;;12.10;11.60;;;;;;;;;;4990063;28;20022;-66
2023/06/15 04:02:53;;;;;;;12.45;11.85;;;;;;;;;;4985711;28;20022;-66
2023/06/15 04:05:19;;;;;;;12.20;11.70;;;;;;;;;;4987636;28;20401;-66
2023/06/15 04:07:44;;;;;;;11.73;11.23;;;;;;;;;;4987280;28;20272;-66
2023/06/15 04:10:10;;;;;;;12.13;11.63;;;;;;;;;;4988234;28;20472;-67
2023/06/15 04:12:36;;;;;;;12.27;11.77;;;;;;;;;;4990671;28;20284;-66
2023/06/15 04:15:01;;;;;;;12.02;11.52;;;;;;;;;;4985176;28;20058;-66
2023/06/15 04:17:26;;;;;;;12.30;11.80;;;;;;;;;;4985811;28;20651;-66
2023/06/15 04:19:51;;;;;;;12.07;11.57;;;;;;;;;;4987081;28;20284;-66
2023/06/15 04:22:17;;;;;;;11.90;11.40;;;;;;;;;;4986830;28;20351;-67
2023/06/15 04:24:42;;;;;;;11.93;11.43;;;;;;;;;;4988933;28;20256;-66
2023/06/15 04:27:12;;;;;;;11.83;11.33;;;;;;;;;;4983680;28;20315;-67
2023/06/15 04:29:37;;;;;;;12.25;11.75;;;;;;;;;;4984427;28;20272;-67
2023/06/15 04:32:03;;;;;;;11.90;11.40;;;;;;;;;;4985471;28;20042;-68
2023/06/15 04:34:30;;;;;;;12.20;11.70;;;;;;;;;;4980989;28;20085;-67
2023/06/15 04:36:56;;;;;;;11.93;11.43;;;;;;;;;;4977311;28;20109;-65
2023/06/15 04:39:25;;;;;;;11.70;11.20;;;;;;;;;;4982043;28;20439;-67
2023/06/15 04:41:51;;;;;;;11.90;11.40;;;;;;;;;;4982162;28;20733;-67
2023/06/15 04:44:16;;;;;;;11.65;11.15;;;;;;;;;;4981745;28;20076;-65
2023/06/15 04:46:41;;;;;;;12.93;12.33;;;;;;;;;;4974981;28;20080;-66
2023/06/15 04:49:07;;;;;;;12.10;11.60;;;;;;;;;;4987043;28;20280;-65
2023/06/15 04:51:32;;;;;;;12.60;12.00;;;;;;;;;;4985733;28;20477;-65
2023/06/15 04:53:57;;;;;;;12.57;11.98;;;;;;;;;;4978298;28;20288;-65
2023/06/15 04:56:23;;;;;;;11.80;11.30;;;;;;;;;;4977987;28;20382;-66
2023/06/15 04:58:48;;;;;;;12.20;11.70;;;;;;;;;;4987053;28;20054;-65
2023/06/15 05:01:14;;;;;;;12.70;12.10;;;;;;;;;;4983317;28;20095;-66
2023/06/15 05:03:40;;;;;;;12.10;11.60;;;;;;;;;;4989328;28;20026;-65
2023/06/15 05:06:05;;;;;;;12.68;12.07;;;;;;;;;;4984354;28;20280;-64
2023/06/15 05:08:32;;;;;;;12.10;11.60;;;;;;;;;;4984389;28;20026;-65
2023/06/15 05:10:58;;;;;;;12.00;11.50;;;;;;;;;;4987775;28;20025;-65
2023/06/15 05:13:23;;;;;;;11.80;11.30;;;;;;;;;;4983092;28;20023;-66
2023/06/15 05:15:48;;;;;;;12.65;12.05;;;;;;;;;;4986173;28;20444;-65
2023/06/15 05:18:14;;;;;;;11.90;11.40;;;;;;;;;;4983094;28;20081;-63
2023/06/15 05:20:39;;;;;;;12.50;11.90;;;;;;;;;;4987565;28;20098;-63
2023/06/15 05:23:04;;;;;;;11.90;11.40;;;;;;;;;;4986696;28;20065;-63
2023/06/15 05:25:30;;;;;;;12.13;11.63;;;;;;;;;;4988764;28;20090;-64
2023/06/15 05:27:55;;;;;;;12.27;11.77;;;;;;;;;;4976677;28;20264;-64
2023/06/15 05:30:22;;;;;;;12.13;11.63;;;;;;;;;;4975832;28;20022;-64
2023/06/15 05:32:49;;;;;;;12.02;11.52;;;;;;;;;;4982746;28;20061;-64
2023/06/15 05:35:14;;;;;;;12.10;11.60;;;;;;;;;;4983694;28;20106;-64
2023/06/15 05:37:39;;;;;;;12.07;11.57;;;;;;;;;;4982426;28;20044;-63
2023/06/15 05:40:05;;;;;;;12.00;11.50;;;;;;;;;;4986081;28;20106;-64
2023/06/15 05:42:32;;;;;;;12.07;11.57;;;;;;;;;;4984239;28;20073;-64
2023/06/15 05:44:57;;;;;;;12.10;11.60;;;;;;;;;;4984813;28;20043;-64
2023/06/15 05:47:22;;;;;;;12.17;11.67;;;;;;;;;;4989698;28;20065;-65
2023/06/15 05:49:48;;;;;;;11.93;11.43;;;;;;;;;;4987932;28;20304;-62
2023/06/15 05:52:14;;;;;;;12.30;11.80;;;;;;;;;;4986850;28;20022;-63
2023/06/15 05:54:42;;;;;;;12.30;11.80;;;;;;;;;;4985170;28;20141;-64
2023/06/15 05:57:07;;;;;;;12.05;11.55;;;;;;;;;;4992005;28;20045;-64
2023/06/15 05:59:32;;;;;;;12.60;12.03;;;;;;;;;;4982300;28;20026;-63
2023/06/15 06:01:58;;;;;;;12.10;11.60;;;;;;;;;;4992672;28;20487;-64
2023/06/15 06:04:23;;;;;;;12.77;12.18;;;;;;;;;;4987453;28;20026;-63
2023/06/15 06:06:48;;;;;;;12.60;12.00;;;;;;;;;;4982299;28;20101;-63
2023/06/15 06:09:14;;;;;;;12.38;11.85;;;;;;;;;;4985730;28;20036;-63
2023/06/15 06:11:39;;;;;;;12.07;11.57;;;;;;;;;;4987482;28;20077;-64
2023/06/15 06:14:05;;;;;;;12.82;12.23;;;;;;;;;;4989803;28;20386;-63
2023/06/15 06:16:30;;;;;;;12.77;12.18;;;;;;;;;;4992427;28;20021;-63
2023/06/15 06:18:55;;;;;;;12.33;11.83;;;;;;;;;;4987467;28;20018;-64
2023/06/15 06:21:21;;;;;;;11.73;11.23;;;;;;;;;;4989238;28;20041;-64
2023/06/15 06:23:46;;;;;;;11.77;11.27;;;;;;;;;;4985340;28;20324;-63
2023/06/15 06:26:11;;;;;;;11.90;11.40;;;;;;;;;;4987135;28;20037;-62
2023/06/15 06:28:37;;;;;;;12.57;11.98;;;;;;;;;;4990101;28;20061;-63
2023/06/15 06:31:02;;;;;;;14.20;13.50;;;;;;;;;;4988253;28;20189;-63
2023/06/15 06:33:27;;;;;;;12.33;11.80;;;;;;;;;;4985305;28;20509;-63
2023/06/15 06:35:52;;;;;;;12.85;12.25;;;;;;;;;;4985953;28;20351;-64
2023/06/15 06:38:18;;;;;;;12.23;11.73;;;;;;;;;;4988328;28;20528;-63
2023/06/15 06:40:43;;;;;;;12.60;12.00;;;;;;;;;;4990754;28;20030;-63
2023/06/15 06:43:08;;;;;;;12.23;11.73;;;;;;;;;;4988778;28;20037;-63
2023/06/15 06:45:34;;;;;;;12.00;11.50;;;;;;;;;;4983596;28;20314;-62
2023/06/15 06:47:59;;;;;;;13.65;13.05;;;;;;;;;;4969430;28;20295;-66
2023/06/15 06:50:24;;;;;;;13.07;12.47;;;;;;;;;;4981006;28;20359;-66
2023/06/15 06:52:50;;;;;;;12.75;12.15;;;;;;;;;;4986078;28;21108;-67
2023/06/15 06:55:15;;;;;;;12.67;12.07;;;;;;;;;;4980977;28;20018;-68
2023/06/15 06:57:40;;;;;;;12.80;12.20;;;;;;;;;;4987075;28;20034;-69
2023/06/15 07:00:07;;;;;;;13.23;12.63;;;;;;;;;;4981052;28;20030;-69
2023/06/15 07:02:32;;;;;;;13.00;12.40;;;;;;;;;;4981110;28;20026;-69
2023/06/15 07:04:58;;;;;;;13.50;12.90;;;;;;;;;;4981364;28;20049;-70
2023/06/15 07:07:23;;;;;;;13.00;12.40;;;;;;;;;;4981922;28;20026;-70
2023/06/15 07:09:48;;;;;;;13.07;12.47;;;;;;;;;;4980821;28;20285;-70
2023/06/15 07:12:14;;;;;;;12.43;11.87;;;;;;;;;;4987099;28;20030;-68
2023/06/15 07:14:40;;;;;;;12.90;12.30;;;;;;;;;;4979880;28;20315;-69
2023/06/15 07:17:06;;;;;;;13.15;12.55;;;;;;;;;;4983064;28;20031;-68
2023/06/15 07:19:31;;;;;;;12.87;12.27;;;;;;;;;;4976932;28;20089;-68
2023/06/15 07:21:57;;;;;;;12.80;12.20;;;;;;;;;;4986366;28;20322;-68
2023/06/15 07:24:23;;;;;;;13.02;12.43;;;;;;;;;;4983750;28;20489;-68
2023/06/15 07:26:48;;;;;;;13.18;12.57;;;;;;;;;;4978218;28;20062;-68
2023/06/15 07:29:13;;;;;;;13.30;12.70;;;;;;;;;;4980583;28;20478;-68
2023/06/15 07:31:38;;;;;;;13.23;12.63;;;;;;;;;;4984921;28;20202;-69
2023/06/15 07:34:04;;;;;;;12.70;12.10;;;;;;;;;;4980545;28;20314;-69
2023/06/15 07:36:29;;;;;;;13.23;12.63;;;;;;;;;;4984354;28;20030;-70
2023/06/15 07:38:54;;;;;;;12.60;12.00;;;;;;;;;;4985897;28;20015;-70
2023/06/15 07:41:20;;;;;;;12.87;12.27;;;;;;;;;;4984062;28;20025;-69
2023/06/15 07:43:45;;;;;;;12.90;12.30;;;;;;;;;;4984679;28;20264;-68
2023/06/15 07:46:10;;;;;;;13.40;12.80;;;;;;;;;;4979224;28;20298;-69
2023/06/15 07:48:36;;;;;;;13.37;12.77;;;;;;;;;;4980741;28;20679;-70
2023/06/15 07:51:01;;;;;;;13.13;12.53;;;;;;;;;;4979738;28;20034;-68
2023/06/15 07:53:26;;;;;;;13.47;12.87;;;;;;;;;;4984688;28;20334;-69
2023/06/15 07:55:52;;;;;;;13.50;12.90;;;;;;;;;;4985691;28;20615;-69
2023/06/15 07:58:17;;;;;;;13.10;12.50;;;;;;;;;;4988961;28;20271;-67
2023/06/15 08:00:42;;;;;;;13.83;13.13;;;;;;;;;;4984616;28;20263;-67
2023/06/15 08:03:08;;;;;;;13.98;13.27;;;;;;;;;;4977041;28;20439;-68
2023/06/15 08:05:33;;;;;;;14.20;13.50;;;;;;;;;;4980826;28;20023;-68
2023/06/15 08:07:58;;;;;;;13.37;12.77;;;;;;;;;;4983390;28;20037;-67
2023/06/15 08:10:24;;;;;;;14.60;13.90;;;;;;;;;;4976958;28;20276;-67
2023/06/15 08:12:49;;;;;;;15.15;14.35;;;;;;;;;;4977177;28;20030;-66
2023/06/15 08:15:15;;;;;;;13.30;12.70;;;;;;;;;;4982604;28;20046;-69
2023/06/15 08:17:40;;;;;;;13.73;13.02;;;;;;;;;;4977406;28;20034;-68
2023/06/15 08:20:09;;;;;;;14.00;13.30;;;;;;;;;;4982363;28;20084;-68
2023/06/15 08:22:38;;;;;;;14.52;13.82;;;;;;;;;;4978076;28;20035;-68
2023/06/15 08:25:03;;;;;;;13.80;13.10;;;;;;;;;;4976881;28;20034;-68
2023/06/15 08:27:28;;;;;;;13.55;12.93;;;;;;;;;;4975226;28;20039;-69
2023/06/15 08:29:54;;;;;;;13.07;12.47;;;;;;;;;;4978009;28;20034;-70
2023/06/15 08:32:20;;;;;;;14.00;13.30;;;;;;;;;;4979272;28;20267;-69
2023/06/15 08:34:45;;;;;;;13.80;13.10;;;;;;;;;;4979805;28;20844;-69
2023/06/15 08:37:12;;;;;;;13.65;12.95;;;;;;;;;;4981481;28;20022;-70
2023/06/15 08:39:38;;;;;;;13.10;12.50;;;;;;;;;;4982709;28;20018;-68
2023/06/15 08:42:04;;;;;;;12.85;12.25;;;;;;;;;;4982516;28;20025;-69
2023/06/15 08:44:30;;;;;;;12.77;12.18;;;;;;;;;;4983767;28;20457;-70
2023/06/15 08:46:56;;;;;;;13.88;13.18;;;;;;;;;;4977229;28;20054;-66
2023/06/15 08:49:23;;;;;;;13.48;12.80;;;;;;;;;;4977455;28;20414;-70
2023/06/15 08:51:49;;;;;;;14.40;13.70;;;;;;;;;;4976945;28;20033;-68
2023/06/15 08:54:18;;;;;;;13.45;12.82;;;;;;;;;;4983060;28;20096;-67
2023/06/15 08:56:43;;;;;;;13.80;13.10;;;;;;;;;;4979126;28;20023;-67
2023/06/15 08:59:08;;;;;;;15.27;14.47;;;;;;;;;;4981624;28;20266;-66
2023/06/15 09:01:39;;;;;;;13.57;12.88;;;;;;;;;;4978881;28;20268;-67
2023/06/15 09:04:06;;;;;;;13.30;12.65;;;;;;;;;;4973822;28;20014;-67
2023/06/15 09:06:31;;;;;;;14.15;13.45;;;;;;;;;;4973120;28;20029;-69
2023/06/15 09:08:56;;;;;;;13.80;13.10;;;;;;;;;;4979063;28;20390;-68
2023/06/15 09:11:23;;;;;;;13.77;13.07;;;;;;;;;;4976553;28;20401;-64
2023/06/15 09:13:51;;;;;;;13.57;12.88;;;;;;;;;;4975885;28;20037;-64
2023/06/15 09:16:16;;;;;;;12.80;12.20;;;;;;;;;;4980033;28;20109;-65
2023/06/15 09:18:43;;;;;;;14.23;13.52;;;;;;;;;;4973318;28;20114;-64
2023/06/15 09:21:10;;;;;;;13.73;13.02;;;;;;;;;;4971902;28;20026;-64
2023/06/15 09:23:36;;;;;;;13.10;12.50;;;;;;;;;;4981123;28;20107;-66
2023/06/15 09:26:01;;;;;;;13.93;13.23;;;;;;;;;;4979450;28;20110;-66
2023/06/15 09:28:26;;;;;;;13.13;12.53;;;;;;;;;;4979544;28;20125;-65
2023/06/15 09:30:53;;;;;;;13.20;12.60;;;;;;;;;;4984873;28;20834;-65
2023/06/15 09:33:19;;;;;;;13.27;12.68;;;;;;;;;;4976137;28;20027;-65
2023/06/15 09:36:00;;;;;;;13.00;12.40;;;;;;;;;;4978864;28;20675;-66
2023/06/15 09:38:26;;;;;;;12.18;11.60;;;;;;;;;;4979889;28;20105;-65
2023/06/15 09:40:52;;;;;;;12.90;12.30;;;;;;;;;;4977908;28;20031;-65
2023/06/15 09:43:18;;;;;;;13.20;12.60;;;;;;;;;;4985134;28;20031;-65
2023/06/15 09:45:51;;;;;;;13.20;12.60;;;;;;;;;;4986332;28;20061;-65
2023/06/15 09:48:16;;;;;;;12.95;12.35;;;;;;;;;;4981321;28;20035;-65
2023/06/15 09:50:41;;;;;;;14.35;13.65;;;;;;;;;;4982110;28;20522;-65
2023/06/15 09:53:08;;;;;;;12.73;12.13;;;;;;;;;;4975470;28;20078;-65
2023/06/15 09:55:33;;;;;;;12.63;12.02;;;;;;;;;;4980593;28;20279;-65
2023/06/15 09:57:59;;;;;;;13.75;13.05;;;;;;;;;;4972196;28;20077;-67
2023/06/15 10:00:24;;;;;;;13.23;12.63;;;;;;;;;;4983186;28;20029;-66
2023/06/15 10:02:52;;;;;;;14.90;14.10;;;;;;;;;;4977254;28;20200;-65
2023/06/15 10:05:22;;;;;;;15.43;14.63;;;;;;;;;;4973681;28;20038;-65
2023/06/15 10:07:48;;;;;;;14.38;13.68;;;;;;;;;;4974962;28;20052;-65
2023/06/15 10:10:14;;;;;;;14.82;14.02;;;;;;;;;;4976688;28;20034;-67
2023/06/15 10:12:42;;;;;;;14.30;13.60;;;;;;;;;;4976387;28;20094;-65
2023/06/15 10:15:12;;;;;;;13.35;12.75;;;;;;;;;;4982117;28;20441;-64
2023/06/15 10:17:40;;;;;;;14.15;13.45;;;;;;;;;;4975734;28;20024;-64
2023/06/15 10:20:09;;;;;;;14.23;13.52;;;;;;;;;;4977108;28;20019;-64
2023/06/15 10:22:38;;;;;;;13.70;13.02;;;;;;;;;;4987190;28;20054;-64
2023/06/15 10:25:05;;;;;;;13.05;12.45;;;;;;;;;;4982781;28;20022;-64
2023/06/15 10:27:30;;;;;;;12.88;12.27;;;;;;;;;;4982281;28;20647;-68
2023/06/15 10:29:58;;;;;;;14.02;13.32;;;;;;;;;;4984440;28;20030;-66
2023/06/15 10:32:26;;;;;;;12.40;11.80;;;;;;;;;;4979879;28;20027;-68
2023/06/15 10:34:56;;;;;;;13.13;12.52;;;;;;;;;;4984157;28;20525;-66
2023/06/15 10:37:31;;;;;;;13.85;13.15;;;;;;;;;;4979159;28;20034;-66
2023/06/15 10:40:05;;;;;;;13.07;12.48;;;;;;;;;;4982789;28;20061;-65
2023/06/15 10:42:30;;;;;;;;;;;;;;;;;;4982510;28;20030;-68
2023/06/15 10:44:58;;;;;;;13.63;12.93;;;;;;;;;;4982188;28;19914;-67
2023/06/15 10:47:23;;;;;;;13.65;12.95;;;;;;;;;;4983431;28;20158;-65
2023/06/15 10:49:49;;;;;;;14.27;13.57;;;;;;;;;;4978686;28;20469;-68
2023/06/15 10:52:15;;;;;;;14.57;13.88;;;;;;;;;;4980717;28;20038;-68
2023/06/15 10:54:40;;;;;;;14.07;13.38;;;;;;;;;;4980052;28;20023;-66
2023/06/15 10:57:06;;;;;;;13.65;12.95;;;;;;;;;;4984517;28;20022;-67
2023/06/15 10:59:48;;;;;;;13.95;13.25;;;;;;;;;;4981272;28;20022;-66
2023/06/15 11:02:31;;;;;;;14.48;13.77;;;;;;;;;;4973065;28;20026;-67
2023/06/15 11:05:12;;;;;;;13.13;12.52;;;;;;;;;;4980141;28;20066;-65
2023/06/15 11:07:43;;;;;;;13.70;13.00;;;;;;;;;;4976184;28;20706;-67
2023/06/15 11:10:14;;;;;;;13.07;12.48;;;;;;;;;;4981411;28;20092;-66
2023/06/15 11:12:40;;;;;;;13.88;13.18;;;;;;;;;;4981812;28;20046;-69
2023/06/15 11:15:08;;;;;;;13.23;12.57;;;;;;;;;;4980681;28;20070;-67
2023/06/15 11:17:52;;;;;;;12.93;12.32;;;;;;;;;;4986458;28;20060;-67
2023/06/15 11:20:20;;;;;;;;;;;;;;;;;;4984654;28;20015;-68
2023/06/15 11:22:46;;;;;;;13.13;12.52;;;;;;;;;;4982128;28;20317;-68
2023/06/15 11:25:11;;;;;;;13.05;12.45;;;;;;;;;;4981469;28;20022;-65
2023/06/15 11:27:37;;;;;;;13.65;12.95;;;;;;;;;;4983280;28;20042;-67
2023/06/15 11:30:03;;;;;;;13.18;12.57;;;;;;;;;;4979061;28;20492;-66
2023/06/15 11:32:28;;;;;;;13.93;13.23;;;;;;;;;;4980790;28;20117;-67
2023/06/15 11:35:00;;;;;;;13.30;12.68;;;;;;;;;;4981199;28;20031;-61
2023/06/15 11:37:28;;;;;;;14.95;14.15;;;;;;;;;;4979761;28;20027;-60
2023/06/15 11:39:53;;;;;;;13.02;12.43;;;;;;;;;;4983702;28;20100;-66
2023/06/15 11:42:20;;;;;;;13.63;12.93;;;;;;;;;;4983615;28;20069;-64
2023/06/15 11:44:49;;;;;;;14.07;13.38;;;;;;;;;;4982358;28;20660;-61
2023/06/15 11:47:14;;;;;;;14.32;13.63;;;;;;;;;;4984782;28;20038;-66
2023/06/15 11:49:40;;;;;;;13.75;13.05;;;;;;;;;;4983603;28;20034;-65
2023/06/15 11:52:06;;;;;;;13.32;12.70;;;;;;;;;;4982661;28;20109;-67
2023/06/15 11:54:32;;;;;;;12.95;12.35;;;;;;;;;;4978485;28;20594;-65
2023/06/15 11:56:57;;;;;;;13.13;12.50;;;;;;;;;;4979859;28;20041;-64
2023/06/15 11:59:23;;;;;;;13.02;12.43;;;;;;;;;;4984141;28;20030;-65
2023/06/15 12:01:49;;;;;;;13.68;12.98;;;;;;;;;;4981774;28;21228;-65
2023/06/15 12:04:15;;;;;;;13.90;13.20;;;;;;;;;;4979588;28;20030;-64
2023/06/15 12:06:43;;;;;;;13.27;12.65;;;;;;;;;;4979654;28;20022;-63
2023/06/15 12:09:09;;;;;;;13.90;13.20;;;;;;;;;;4977744;28;20037;-63
2023/06/15 12:11:35;;;;;;;13.85;13.15;;;;;;;;;;4978134;28;20018;-64
2023/06/15 12:14:01;;;;;;;12.95;12.35;;;;;;;;;;4980825;28;20030;-62
2023/06/15 12:16:27;;;;;;;13.77;13.07;;;;;;;;;;4978795;28;20026;-68
2023/06/15 12:18:54;;;;;;;12.63;12.02;;;;;;;;;;4980542;28;20022;-66
2023/06/15 12:21:20;;;;;;;12.75;12.15;;;;;;;;;;4982315;28;20014;-67
2023/06/15 12:23:48;;;;;;;14.00;13.30;;;;;;;;;;4977462;28;20064;-65
2023/06/15 12:26:15;;;;;;;14.05;13.35;;;;;;;;;;4974365;28;20027;-67
2023/06/15 12:28:41;;;;;;;13.02;12.43;;;;;;;;;;4983468;28;20038;-62
2023/06/15 12:31:10;;;;;;;13.97;13.27;;;;;;;;;;4980597;28;20037;-64
2023/06/15 12:33:39;;;;;;;12.88;12.27;;;;;;;;;;4982042;28;20791;-61
2023/06/15 12:36:09;;;;;;;12.98;12.38;;;;;;;;;;4982779;28;20035;-63
2023/06/15 12:38:34;;;;;;;14.00;13.30;;;;;;;;;;4979770;28;20067;-62
2023/06/15 12:40:59;;;;;;;12.77;12.18;;;;;;;;;;4980879;28;20034;-63
2023/06/15 12:43:25;;;;;;;13.90;13.20;;;;;;;;;;4982504;28;20049;-63
2023/06/15 12:45:52;;;;;;;13.73;13.02;;;;;;;;;;4976580;28;20027;-64
2023/06/15 12:48:18;;;;;;;13.18;12.57;;;;;;;;;;4981198;28;20071;-62
2023/06/15 12:50:44;;;;;;;14.15;13.45;;;;;;;;;;4979471;28;20043;-63
2023/06/15 12:53:09;;;;;;;12.80;12.20;;;;;;;;;;4982066;28;20045;-66
2023/06/15 12:55:34;;;;;;;12.45;11.85;;;;;;;;;;4986789;28;20474;-64
2023/06/15 12:58:00;;;;;;;13.45;12.80;;;;;;;;;;4989199;28;20037;-65
2023/06/15 13:00:26;;;;;;;12.75;12.15;;;;;;;;;;4985737;28;20026;-65
2023/06/15 13:02:55;;;;;;;16.02;15.15;;;;;;;;;;4980117;28;20030;-65
2023/06/15 13:05:20;;;;;;;15.52;14.73;;;;;;;;;;4974255;28;20019;-71
2023/06/15 13:07:46;;;;;;;15.00;14.20;;;;;;;;;;4981142;28;20041;-70
2023/06/15 13:10:12;;;;;;;14.38;13.68;;;;;;;;;;4981499;28;20131;-70
2023/06/15 13:12:38;;;;;;;14.23;13.52;;;;;;;;;;4987905;28;20026;-70
2023/06/15 13:15:06;;;;;;;13.23;12.63;;;;;;;;;;4984560;28;20061;-70
2023/06/15 13:17:38;;;;;;;13.15;12.55;;;;;;;;;;4971988;28;20018;-70
2023/06/15 13:20:07;;;;;;;13.52;12.85;;;;;;;;;;4982978;28;20528;-65
2023/06/15 13:22:32;;;;;;;14.48;13.77;;;;;;;;;;4982205;28;20027;-68
2023/06/15 13:24:58;;;;;;;13.77;13.07;;;;;;;;;;4986341;28;20062;-70
2023/06/15 13:27:23;;;;;;;14.00;13.30;;;;;;;;;;4981527;28;20065;-68
2023/06/15 13:29:49;;;;;;;13.38;12.77;;;;;;;;;;4974631;28;21297;-70
2023/06/15 13:32:15;;;;;;;15.20;14.40;;;;;;;;;;4975854;28;20046;-71
2023/06/15 13:34:41;;;;;;;12.57;11.98;;;;;;;;;;4982160;28;20033;-70
2023/06/15 13:37:06;;;;;;;12.98;12.38;;;;;;;;;;4978377;28;20470;-70
2023/06/15 13:39:31;;;;;;;13.40;12.80;;;;;;;;;;4978092;28;20034;-71
2023/06/15 13:41:57;;;;;;;12.63;12.02;;;;;;;;;;4975985;28;20027;-71
2023/06/15 13:44:22;;;;;;;12.57;11.98;;;;;;;;;;4976740;28;20496;-70
2023/06/15 13:46:47;;;;;;;13.73;13.02;;;;;;;;;;4983289;28;20032;-70
2023/06/15 13:49:13;;;;;;;14.40;13.70;;;;;;;;;;4974676;28;20513;-69
2023/06/15 13:51:38;;;;;;;13.95;13.25;;;;;;;;;;4978708;28;20127;-69
2023/06/15 13:54:04;;;;;;;13.07;12.48;;;;;;;;;;4985825;28;20041;-68
2023/06/15 13:56:29;;;;;;;13.90;13.20;;;;;;;;;;4985633;28;20011;-68
2023/06/15 13:58:56;;;;;;;13.67;12.97;;;;;;;;;;4991984;28;20030;-69
2023/06/15 14:01:24;;;;;;;13.15;12.55;;;;;;;;;;4987935;28;20282;-70
2023/06/15 14:03:53;;;;;;;13.10;12.50;;;;;;;;;;4982830;28;20026;-68
2023/06/15 14:06:19;;;;;;;14.10;13.40;;;;;;;;;;4986163;28;20069;-69
2023/06/15 14:08:46;;;;;;;12.82;12.23;;;;;;;;;;4989220;28;20030;-67
2023/06/15 14:11:11;;;;;;;13.77;13.07;;;;;;;;;;4988363;28;20430;-70
2023/06/15 14:13:36;;;;;;;13.27;12.68;;;;;;;;;;4982568;28;20105;-70